sensor_id;sensor_type;location;lat;lon;timestamp;P1;durP1;ratioP1;P2;durP2;ratioP2
65583;SDS011;62116;43.582;1.470;2023-03-01T00:01:07;12.45;;;7.75;;
65583;SDS011;62116;43.582;1.470;2023-03-01T00:03:37;14.20;;;7.67;;
65583;SDS011;62116;43.582;1.470;2023-03-01T00:06:03;16.35;;;8.57;;
65583;SDS011;62116;43.582;1.470;2023-03-01T00:08:30;16.13;;;9.00;;
65583;SDS011;62116;43.582;1.470;2023-03-01T00:13:28;14.60;;;8.32;;
65583;SDS011;62116;43.582;1.470;2023-03-01T00:15:54;16.42;;;9.02;;
65583;SDS011;62116;43.582;1.470;2023-03-01T00:18:19;17.15;;;8.65;;
65583;SDS011;62116;43.582;1.470;2023-03-01T00:20:51;19.92;;;9.77;;
65583;SDS011;62116;43.582;1.470;2023-03-01T00:23:18;15.00;;;9.30;;
65583;SDS011;62116;43.582;1.470;2023-03-01T00:25:44;16.60;;;9.45;;
65583;SDS011;62116;43.582;1.470;2023-03-01T00:28:09;17.10;;;10.02;;
65583;SDS011;62116;43.582;1.470;2023-03-01T00:30:34;16.27;;;9.82;;
65583;SDS011;62116;43.582;1.470;2023-03-01T00:33:00;17.33;;;10.20;;
65583;SDS011;62116;43.582;1.470;2023-03-01T00:35:25;18.33;;;9.90;;
65583;SDS011;62116;43.582;1.470;2023-03-01T00:37:51;18.40;;;10.15;;
65583;SDS011;62116;43.582;1.470;2023-03-01T00:40:23;16.75;;;9.63;;
65583;SDS011;62116;43.582;1.470;2023-03-01T00:42:49;19.45;;;10.60;;
65583;SDS011;62116;43.582;1.470;2023-03-01T00:45:14;18.73;;;10.38;;
65583;SDS011;62116;43.582;1.470;2023-03-01T00:47:40;17.25;;;10.35;;
65583;SDS011;62116;43.582;1.470;2023-03-01T00:50:05;18.48;;;10.65;;
65583;SDS011;62116;43.582;1.470;2023-03-01T00:52:31;18.60;;;10.52;;
65583;SDS011;62116;43.582;1.470;2023-03-01T00:54:56;18.92;;;10.15;;
65583;SDS011;62116;43.582;1.470;2023-03-01T00:57:22;19.95;;;9.98;;
65583;SDS011;62116;43.582;1.470;2023-03-01T00:59:48;17.77;;;9.75;;
65583;SDS011;62116;43.582;1.470;2023-03-01T01:02:14;17.67;;;9.32;;
65583;SDS011;62116;43.582;1.470;2023-03-01T01:04:40;17.08;;;9.93;;
65583;SDS011;62116;43.582;1.470;2023-03-01T01:07:05;18.27;;;9.75;;
65583;SDS011;62116;43.582;1.470;2023-03-01T01:09:31;17.38;;;9.77;;
65583;SDS011;62116;43.582;1.470;2023-03-01T01:11:56;18.67;;;10.45;;
65583;SDS011;62116;43.582;1.470;2023-03-01T01:14:22;21.67;;;10.57;;
65583;SDS011;62116;43.582;1.470;2023-03-01T01:16:47;17.30;;;9.85;;
65583;SDS011;62116;43.582;1.470;2023-03-01T01:19:13;15.68;;;9.32;;
65583;SDS011;62116;43.582;1.470;2023-03-01T01:21:39;16.60;;;10.18;;
65583;SDS011;62116;43.582;1.470;2023-03-01T01:24:04;16.38;;;9.20;;
65583;SDS011;62116;43.582;1.470;2023-03-01T01:26:31;19.17;;;10.05;;
65583;SDS011;62116;43.582;1.470;2023-03-01T01:28:58;15.73;;;9.25;;
65583;SDS011;62116;43.582;1.470;2023-03-01T01:31:25;18.23;;;10.15;;
65583;SDS011;62116;43.582;1.470;2023-03-01T01:33:52;20.95;;;9.73;;
65583;SDS011;62116;43.582;1.470;2023-03-01T01:36:18;16.98;;;9.40;;
65583;SDS011;62116;43.582;1.470;2023-03-01T01:38:44;14.82;;;8.65;;
65583;SDS011;62116;43.582;1.470;2023-03-01T01:41:10;13.80;;;7.90;;
65583;SDS011;62116;43.582;1.470;2023-03-01T01:46:44;11.90;;;6.63;;
65583;SDS011;62116;43.582;1.470;2023-03-01T01:51:58;13.95;;;7.30;;
65583;SDS011;62116;43.582;1.470;2023-03-01T01:54:44;15.20;;;7.20;;
65583;SDS011;62116;43.582;1.470;2023-03-01T01:57:16;13.35;;;6.88;;
65583;SDS011;62116;43.582;1.470;2023-03-01T01:59:46;14.30;;;7.18;;
65583;SDS011;62116;43.582;1.470;2023-03-01T02:02:17;12.23;;;6.30;;
65583;SDS011;62116;43.582;1.470;2023-03-01T02:04:44;15.20;;;6.90;;
65583;SDS011;62116;43.582;1.470;2023-03-01T02:09:46;12.43;;;6.32;;
65583;SDS011;62116;43.582;1.470;2023-03-01T02:12:16;11.93;;;6.47;;
65583;SDS011;62116;43.582;1.470;2023-03-01T02:14:44;8.77;;;5.50;;
65583;SDS011;62116;43.582;1.470;2023-03-01T02:17:09;12.65;;;6.20;;
65583;SDS011;62116;43.582;1.470;2023-03-01T02:22:20;12.05;;;6.50;;
65583;SDS011;62116;43.582;1.470;2023-03-01T02:24:52;10.68;;;6.05;;
65583;SDS011;62116;43.582;1.470;2023-03-01T02:27:30;8.57;;;5.57;;
65583;SDS011;62116;43.582;1.470;2023-03-01T02:30:18;10.90;;;6.03;;
65583;SDS011;62116;43.582;1.470;2023-03-01T02:32:46;10.95;;;5.95;;
65583;SDS011;62116;43.582;1.470;2023-03-01T02:35:15;10.40;;;6.28;;
65583;SDS011;62116;43.582;1.470;2023-03-01T02:37:43;15.38;;;6.70;;
65583;SDS011;62116;43.582;1.470;2023-03-01T02:40:10;12.43;;;6.57;;
65583;SDS011;62116;43.582;1.470;2023-03-01T02:42:54;12.95;;;5.90;;
65583;SDS011;62116;43.582;1.470;2023-03-01T02:45:24;9.65;;;6.22;;
65583;SDS011;62116;43.582;1.470;2023-03-01T02:47:53;12.55;;;6.50;;
65583;SDS011;62116;43.582;1.470;2023-03-01T02:55:53;14.20;;;7.15;;
65583;SDS011;62116;43.582;1.470;2023-03-01T02:58:19;13.07;;;7.00;;
65583;SDS011;62116;43.582;1.470;2023-03-01T03:00:44;12.85;;;6.80;;
65583;SDS011;62116;43.582;1.470;2023-03-01T03:03:15;11.43;;;6.72;;
65583;SDS011;62116;43.582;1.470;2023-03-01T03:05:42;12.48;;;6.88;;
65583;SDS011;62116;43.582;1.470;2023-03-01T03:08:08;12.75;;;6.72;;
65583;SDS011;62116;43.582;1.470;2023-03-01T03:10:35;13.00;;;7.10;;
65583;SDS011;62116;43.582;1.470;2023-03-01T03:13:05;14.13;;;7.57;;
65583;SDS011;62116;43.582;1.470;2023-03-01T03:15:32;10.98;;;7.13;;
65583;SDS011;62116;43.582;1.470;2023-03-01T03:18:02;16.27;;;7.57;;
65583;SDS011;62116;43.582;1.470;2023-03-01T03:20:29;13.13;;;7.30;;
65583;SDS011;62116;43.582;1.470;2023-03-01T03:22:56;12.48;;;7.30;;
65583;SDS011;62116;43.582;1.470;2023-03-01T03:25:23;16.63;;;8.25;;
65583;SDS011;62116;43.582;1.470;2023-03-01T03:27:49;15.27;;;8.32;;
65583;SDS011;62116;43.582;1.470;2023-03-01T03:30:21;14.50;;;7.80;;
65583;SDS011;62116;43.582;1.470;2023-03-01T03:32:47;13.23;;;7.60;;
65583;SDS011;62116;43.582;1.470;2023-03-01T03:35:18;15.50;;;8.60;;
65583;SDS011;62116;43.582;1.470;2023-03-01T03:37:46;14.45;;;7.88;;
65583;SDS011;62116;43.582;1.470;2023-03-01T03:40:28;14.18;;;7.43;;
65583;SDS011;62116;43.582;1.470;2023-03-01T03:43:05;14.05;;;8.07;;
65583;SDS011;62116;43.582;1.470;2023-03-01T03:45:32;17.20;;;7.75;;
65583;SDS011;62116;43.582;1.470;2023-03-01T03:47:58;15.30;;;8.13;;
65583;SDS011;62116;43.582;1.470;2023-03-01T03:50:25;17.98;;;8.52;;
65583;SDS011;62116;43.582;1.470;2023-03-01T03:52:51;15.10;;;7.97;;
65583;SDS011;62116;43.582;1.470;2023-03-01T03:55:16;16.27;;;8.13;;
65583;SDS011;62116;43.582;1.470;2023-03-01T03:57:44;15.02;;;8.20;;
65583;SDS011;62116;43.582;1.470;2023-03-01T04:00:17;15.18;;;7.82;;
65583;SDS011;62116;43.582;1.470;2023-03-01T04:02:44;13.23;;;7.63;;
65583;SDS011;62116;43.582;1.470;2023-03-01T04:05:11;14.57;;;7.43;;
65583;SDS011;62116;43.582;1.470;2023-03-01T04:07:39;13.25;;;7.68;;
65583;SDS011;62116;43.582;1.470;2023-03-01T04:10:06;16.50;;;7.50;;
65583;SDS011;62116;43.582;1.470;2023-03-01T04:12:34;15.43;;;7.80;;
65583;SDS011;62116;43.582;1.470;2023-03-01T04:15:00;13.57;;;7.63;;
65583;SDS011;62116;43.582;1.470;2023-03-01T04:17:26;13.38;;;7.60;;
65583;SDS011;62116;43.582;1.470;2023-03-01T04:19:52;12.70;;;7.70;;
65583;SDS011;62116;43.582;1.470;2023-03-01T04:22:18;15.50;;;7.50;;
65583;SDS011;62116;43.582;1.470;2023-03-01T04:24:44;12.35;;;7.15;;
65583;SDS011;62116;43.582;1.470;2023-03-01T04:27:10;12.73;;;7.10;;
65583;SDS011;62116;43.582;1.470;2023-03-01T04:29:36;15.38;;;7.60;;
65583;SDS011;62116;43.582;1.470;2023-03-01T04:32:01;11.60;;;7.13;;
65583;SDS011;62116;43.582;1.470;2023-03-01T04:34:28;13.38;;;7.00;;
65583;SDS011;62116;43.582;1.470;2023-03-01T04:36:53;11.57;;;7.20;;
65583;SDS011;62116;43.582;1.470;2023-03-01T04:39:19;13.02;;;7.30;;
65583;SDS011;62116;43.582;1.470;2023-03-01T04:41:44;12.98;;;7.35;;
65583;SDS011;62116;43.582;1.470;2023-03-01T04:44:10;12.68;;;7.22;;
65583;SDS011;62116;43.582;1.470;2023-03-01T04:46:36;11.68;;;7.25;;
65583;SDS011;62116;43.582;1.470;2023-03-01T04:49:02;12.10;;;7.10;;
65583;SDS011;62116;43.582;1.470;2023-03-01T04:51:28;13.07;;;6.93;;
65583;SDS011;62116;43.582;1.470;2023-03-01T04:53:53;11.20;;;6.85;;
65583;SDS011;62116;43.582;1.470;2023-03-01T04:56:19;13.70;;;7.15;;
65583;SDS011;62116;43.582;1.470;2023-03-01T04:58:45;14.93;;;7.80;;
65583;SDS011;62116;43.582;1.470;2023-03-01T05:01:11;13.35;;;7.30;;
65583;SDS011;62116;43.582;1.470;2023-03-01T05:03:43;12.10;;;7.45;;
65583;SDS011;62116;43.582;1.470;2023-03-01T05:06:09;15.00;;;7.00;;
65583;SDS011;62116;43.582;1.470;2023-03-01T05:08:35;16.60;;;7.28;;
65583;SDS011;62116;43.582;1.470;2023-03-01T05:11:04;11.38;;;7.05;;
65583;SDS011;62116;43.582;1.470;2023-03-01T05:13:30;12.15;;;7.28;;
65583;SDS011;62116;43.582;1.470;2023-03-01T05:15:57;15.10;;;7.60;;
65583;SDS011;62116;43.582;1.470;2023-03-01T05:18:24;15.90;;;7.78;;
65583;SDS011;62116;43.582;1.470;2023-03-01T05:20:54;13.20;;;7.25;;
65583;SDS011;62116;43.582;1.470;2023-03-01T05:23:23;14.75;;;7.25;;
65583;SDS011;62116;43.582;1.470;2023-03-01T05:25:49;11.32;;;7.32;;
65583;SDS011;62116;43.582;1.470;2023-03-01T05:28:17;14.50;;;7.53;;
65583;SDS011;62116;43.582;1.470;2023-03-01T05:30:44;13.07;;;7.10;;
65583;SDS011;62116;43.582;1.470;2023-03-01T05:33:10;12.57;;;7.25;;
65583;SDS011;62116;43.582;1.470;2023-03-01T05:35:38;12.15;;;7.30;;
65583;SDS011;62116;43.582;1.470;2023-03-01T05:38:06;13.63;;;7.95;;
65583;SDS011;62116;43.582;1.470;2023-03-01T05:40:32;13.30;;;7.57;;
65583;SDS011;62116;43.582;1.470;2023-03-01T05:42:59;15.23;;;8.07;;
65583;SDS011;62116;43.582;1.470;2023-03-01T05:45:25;14.00;;;7.85;;
65583;SDS011;62116;43.582;1.470;2023-03-01T05:47:52;13.25;;;7.65;;
65583;SDS011;62116;43.582;1.470;2023-03-01T05:50:21;11.63;;;7.43;;
65583;SDS011;62116;43.582;1.470;2023-03-01T05:52:49;12.85;;;7.30;;
65583;SDS011;62116;43.582;1.470;2023-03-01T05:55:16;12.70;;;7.63;;
65583;SDS011;62116;43.582;1.470;2023-03-01T05:57:43;13.63;;;7.68;;
65583;SDS011;62116;43.582;1.470;2023-03-01T06:00:09;12.93;;;7.47;;
65583;SDS011;62116;43.582;1.470;2023-03-01T06:02:36;13.15;;;7.20;;
65583;SDS011;62116;43.582;1.470;2023-03-01T06:05:03;12.30;;;7.53;;
65583;SDS011;62116;43.582;1.470;2023-03-01T06:07:29;13.45;;;8.05;;
65583;SDS011;62116;43.582;1.470;2023-03-01T06:09:55;11.70;;;7.40;;
65583;SDS011;62116;43.582;1.470;2023-03-01T06:12:20;12.50;;;7.28;;
65583;SDS011;62116;43.582;1.470;2023-03-01T06:14:46;11.80;;;7.50;;
65583;SDS011;62116;43.582;1.470;2023-03-01T06:17:12;13.60;;;7.65;;
65583;SDS011;62116;43.582;1.470;2023-03-01T06:19:38;13.68;;;7.93;;
65583;SDS011;62116;43.582;1.470;2023-03-01T06:22:04;13.98;;;8.00;;
65583;SDS011;62116;43.582;1.470;2023-03-01T06:24:29;15.15;;;8.00;;
65583;SDS011;62116;43.582;1.470;2023-03-01T06:26:55;13.73;;;7.97;;
65583;SDS011;62116;43.582;1.470;2023-03-01T06:29:20;12.80;;;8.18;;
65583;SDS011;62116;43.582;1.470;2023-03-01T06:31:47;12.93;;;8.20;;
65583;SDS011;62116;43.582;1.470;2023-03-01T06:34:12;14.18;;;7.75;;
65583;SDS011;62116;43.582;1.470;2023-03-01T06:36:38;11.13;;;7.28;;
65583;SDS011;62116;43.582;1.470;2023-03-01T06:39:04;15.82;;;8.23;;
65583;SDS011;62116;43.582;1.470;2023-03-01T06:41:30;12.82;;;7.30;;
65583;SDS011;62116;43.582;1.470;2023-03-01T06:43:56;14.60;;;7.93;;
65583;SDS011;62116;43.582;1.470;2023-03-01T06:46:22;12.70;;;6.97;;
65583;SDS011;62116;43.582;1.470;2023-03-01T06:48:47;15.60;;;8.18;;
65583;SDS011;62116;43.582;1.470;2023-03-01T06:51:12;13.93;;;8.07;;
65583;SDS011;62116;43.582;1.470;2023-03-01T06:53:38;13.43;;;8.15;;
65583;SDS011;62116;43.582;1.470;2023-03-01T06:56:03;16.65;;;8.25;;
65583;SDS011;62116;43.582;1.470;2023-03-01T06:58:29;14.65;;;8.00;;
65583;SDS011;62116;43.582;1.470;2023-03-01T07:00:54;13.80;;;7.78;;
65583;SDS011;62116;43.582;1.470;2023-03-01T07:03:20;13.27;;;8.10;;
65583;SDS011;62116;43.582;1.470;2023-03-01T07:05:47;11.82;;;7.40;;
65583;SDS011;62116;43.582;1.470;2023-03-01T07:08:14;13.60;;;7.57;;
65583;SDS011;62116;43.582;1.470;2023-03-01T07:10:39;14.20;;;8.32;;
65583;SDS011;62116;43.582;1.470;2023-03-01T07:13:05;13.40;;;8.25;;
65583;SDS011;62116;43.582;1.470;2023-03-01T07:15:32;17.45;;;8.13;;
65583;SDS011;62116;43.582;1.470;2023-03-01T07:17:57;13.63;;;8.10;;
65583;SDS011;62116;43.582;1.470;2023-03-01T07:20:23;14.65;;;8.38;;
65583;SDS011;62116;43.582;1.470;2023-03-01T07:22:50;17.60;;;8.10;;
65583;SDS011;62116;43.582;1.470;2023-03-01T07:25:16;11.25;;;7.07;;
65583;SDS011;62116;43.582;1.470;2023-03-01T07:27:42;14.90;;;7.20;;
65583;SDS011;62116;43.582;1.470;2023-03-01T07:30:07;12.38;;;7.80;;
65583;SDS011;62116;43.582;1.470;2023-03-01T07:32:33;12.88;;;7.32;;
65583;SDS011;62116;43.582;1.470;2023-03-01T07:34:59;14.70;;;7.85;;
65583;SDS011;62116;43.582;1.470;2023-03-01T07:37:24;12.30;;;7.32;;
65583;SDS011;62116;43.582;1.470;2023-03-01T07:39:50;14.15;;;7.45;;
65583;SDS011;62116;43.582;1.470;2023-03-01T07:42:15;14.10;;;7.40;;
65583;SDS011;62116;43.582;1.470;2023-03-01T07:44:40;13.00;;;7.40;;
65583;SDS011;62116;43.582;1.470;2023-03-01T07:47:06;13.35;;;7.50;;
65583;SDS011;62116;43.582;1.470;2023-03-01T07:49:31;12.13;;;7.22;;
65583;SDS011;62116;43.582;1.470;2023-03-01T07:51:57;11.38;;;6.97;;
65583;SDS011;62116;43.582;1.470;2023-03-01T07:54:22;12.50;;;7.22;;
65583;SDS011;62116;43.582;1.470;2023-03-01T07:56:48;14.23;;;7.32;;
65583;SDS011;62116;43.582;1.470;2023-03-01T07:59:13;13.52;;;7.40;;
65583;SDS011;62116;43.582;1.470;2023-03-01T08:01:39;12.93;;;7.32;;
65583;SDS011;62116;43.582;1.470;2023-03-01T08:04:04;13.30;;;7.13;;
65583;SDS011;62116;43.582;1.470;2023-03-01T08:06:33;14.32;;;7.70;;
65583;SDS011;62116;43.582;1.470;2023-03-01T08:08:59;11.93;;;7.18;;
65583;SDS011;62116;43.582;1.470;2023-03-01T08:11:24;13.30;;;7.65;;
65583;SDS011;62116;43.582;1.470;2023-03-01T08:13:50;11.35;;;7.55;;
65583;SDS011;62116;43.582;1.470;2023-03-01T08:16:15;11.45;;;7.10;;
65583;SDS011;62116;43.582;1.470;2023-03-01T08:18:42;11.52;;;7.15;;
65583;SDS011;62116;43.582;1.470;2023-03-01T08:21:09;12.50;;;7.72;;
65583;SDS011;62116;43.582;1.470;2023-03-01T08:23:37;12.52;;;7.40;;
65583;SDS011;62116;43.582;1.470;2023-03-01T08:26:13;14.63;;;7.35;;
65583;SDS011;62116;43.582;1.470;2023-03-01T08:28:43;11.20;;;6.78;;
65583;SDS011;62116;43.582;1.470;2023-03-01T08:33:59;14.80;;;8.20;;
65583;SDS011;62116;43.582;1.470;2023-03-01T08:36:27;15.35;;;8.20;;
65583;SDS011;62116;43.582;1.470;2023-03-01T08:38:55;12.90;;;7.68;;
65583;SDS011;62116;43.582;1.470;2023-03-01T08:41:20;15.43;;;7.22;;
65583;SDS011;62116;43.582;1.470;2023-03-01T08:43:46;11.63;;;7.55;;
65583;SDS011;62116;43.582;1.470;2023-03-01T08:46:12;12.57;;;8.07;;
65583;SDS011;62116;43.582;1.470;2023-03-01T08:48:38;13.77;;;7.70;;
65583;SDS011;62116;43.582;1.470;2023-03-01T08:51:11;16.35;;;8.32;;
65583;SDS011;62116;43.582;1.470;2023-03-01T08:53:37;17.20;;;8.77;;
65583;SDS011;62116;43.582;1.470;2023-03-01T08:56:04;16.48;;;8.23;;
65583;SDS011;62116;43.582;1.470;2023-03-01T08:58:29;13.60;;;7.90;;
65583;SDS011;62116;43.582;1.470;2023-03-01T09:00:55;17.55;;;8.45;;
65583;SDS011;62116;43.582;1.470;2023-03-01T09:03:24;14.55;;;8.27;;
65583;SDS011;62116;43.582;1.470;2023-03-01T09:05:50;14.93;;;8.30;;
65583;SDS011;62116;43.582;1.470;2023-03-01T09:08:17;15.77;;;8.75;;
65583;SDS011;62116;43.582;1.470;2023-03-01T09:10:44;16.88;;;8.77;;
65583;SDS011;62116;43.582;1.470;2023-03-01T09:13:10;14.95;;;8.82;;
65583;SDS011;62116;43.582;1.470;2023-03-01T09:15:38;14.15;;;8.07;;
65583;SDS011;62116;43.582;1.470;2023-03-01T09:18:04;14.93;;;7.93;;
65583;SDS011;62116;43.582;1.470;2023-03-01T09:20:30;14.02;;;7.47;;
65583;SDS011;62116;43.582;1.470;2023-03-01T09:22:56;16.67;;;8.10;;
65583;SDS011;62116;43.582;1.470;2023-03-01T09:25:22;11.45;;;7.57;;
65583;SDS011;62116;43.582;1.470;2023-03-01T09:27:50;15.00;;;7.65;;
65583;SDS011;62116;43.582;1.470;2023-03-01T09:30:16;13.40;;;7.65;;
65583;SDS011;62116;43.582;1.470;2023-03-01T09:32:42;12.93;;;7.20;;
65583;SDS011;62116;43.582;1.470;2023-03-01T09:35:07;10.00;;;6.55;;
65583;SDS011;62116;43.582;1.470;2023-03-01T09:37:34;9.60;;;6.85;;
65583;SDS011;62116;43.582;1.470;2023-03-01T09:40:00;12.98;;;6.40;;
65583;SDS011;62116;43.582;1.470;2023-03-01T09:42:27;11.45;;;6.70;;
65583;SDS011;62116;43.582;1.470;2023-03-01T09:45:00;11.55;;;6.90;;
65583;SDS011;62116;43.582;1.470;2023-03-01T09:47:33;10.98;;;7.20;;
65583;SDS011;62116;43.582;1.470;2023-03-01T09:55:16;9.32;;;5.90;;
65583;SDS011;62116;43.582;1.470;2023-03-01T09:57:59;11.38;;;5.72;;
65583;SDS011;62116;43.582;1.470;2023-03-01T10:00:39;9.70;;;5.68;;
65583;SDS011;62116;43.582;1.470;2023-03-01T10:08:19;9.25;;;5.05;;
65583;SDS011;62116;43.582;1.470;2023-03-01T10:10:54;6.93;;;4.95;;
65583;SDS011;62116;43.582;1.470;2023-03-01T10:13:33;9.02;;;5.43;;
65583;SDS011;62116;43.582;1.470;2023-03-01T10:16:27;6.78;;;4.82;;
65583;SDS011;62116;43.582;1.470;2023-03-01T10:19:00;7.35;;;5.22;;
65583;SDS011;62116;43.582;1.470;2023-03-01T10:21:28;7.47;;;4.75;;
65583;SDS011;62116;43.582;1.470;2023-03-01T10:23:56;8.43;;;4.90;;
65583;SDS011;62116;43.582;1.470;2023-03-01T10:26:38;6.05;;;4.60;;
65583;SDS011;62116;43.582;1.470;2023-03-01T10:29:10;6.35;;;4.80;;
65583;SDS011;62116;43.582;1.470;2023-03-01T10:31:47;8.43;;;4.88;;
65583;SDS011;62116;43.582;1.470;2023-03-01T10:34:30;6.82;;;4.80;;
65583;SDS011;62116;43.582;1.470;2023-03-01T10:37:17;6.57;;;4.80;;
65583;SDS011;62116;43.582;1.470;2023-03-01T10:40:02;6.10;;;4.70;;
65583;SDS011;62116;43.582;1.470;2023-03-01T10:42:46;8.88;;;4.90;;
65583;SDS011;62116;43.582;1.470;2023-03-01T10:50:47;7.60;;;5.10;;
65583;SDS011;62116;43.582;1.470;2023-03-01T10:56:10;6.07;;;4.63;;
65583;SDS011;62116;43.582;1.470;2023-03-01T11:01:32;6.80;;;4.38;;
65583;SDS011;62116;43.582;1.470;2023-03-01T11:06:31;7.28;;;4.32;;
65583;SDS011;62116;43.582;1.470;2023-03-01T11:08:57;5.50;;;4.00;;
65583;SDS011;62116;43.582;1.470;2023-03-01T11:11:42;6.50;;;4.10;;
65583;SDS011;62116;43.582;1.470;2023-03-01T11:14:18;7.95;;;4.65;;
65583;SDS011;62116;43.582;1.470;2023-03-01T11:16:49;6.28;;;4.75;;
65583;SDS011;62116;43.582;1.470;2023-03-01T11:19:30;7.55;;;4.55;;
65583;SDS011;62116;43.582;1.470;2023-03-01T11:22:07;7.15;;;4.38;;
65583;SDS011;62116;43.582;1.470;2023-03-01T11:24:41;7.85;;;4.28;;
65583;SDS011;62116;43.582;1.470;2023-03-01T11:27:17;6.50;;;4.30;;
65583;SDS011;62116;43.582;1.470;2023-03-01T11:30:07;7.28;;;4.53;;
65583;SDS011;62116;43.582;1.470;2023-03-01T11:35:53;6.85;;;4.30;;
65583;SDS011;62116;43.582;1.470;2023-03-01T11:38:26;6.75;;;4.40;;
65583;SDS011;62116;43.582;1.470;2023-03-01T11:43:30;8.18;;;4.55;;
65583;SDS011;62116;43.582;1.470;2023-03-01T11:46:26;7.18;;;4.63;;
65583;SDS011;62116;43.582;1.470;2023-03-01T11:49:22;7.07;;;4.50;;
65583;SDS011;62116;43.582;1.470;2023-03-01T11:52:12;6.53;;;4.38;;
65583;SDS011;62116;43.582;1.470;2023-03-01T11:58:14;6.22;;;4.03;;
65583;SDS011;62116;43.582;1.470;2023-03-01T12:01:00;5.47;;;4.00;;
65583;SDS011;62116;43.582;1.470;2023-03-01T12:09:07;5.80;;;3.72;;
65583;SDS011;62116;43.582;1.470;2023-03-01T12:11:43;5.70;;;3.90;;
65583;SDS011;62116;43.582;1.470;2023-03-01T12:38:59;4.82;;;3.67;;
65583;SDS011;62116;43.582;1.470;2023-03-01T12:44:12;5.78;;;3.72;;
65583;SDS011;62116;43.582;1.470;2023-03-01T12:46:57;5.25;;;4.00;;
65583;SDS011;62116;43.582;1.470;2023-03-01T12:49:54;7.55;;;4.25;;
65583;SDS011;62116;43.582;1.470;2023-03-01T12:54:54;6.07;;;3.95;;
65583;SDS011;62116;43.582;1.470;2023-03-01T12:57:29;7.03;;;4.05;;
65583;SDS011;62116;43.582;1.470;2023-03-01T13:05:59;5.68;;;3.97;;
65583;SDS011;62116;43.582;1.470;2023-03-01T13:09:15;5.63;;;3.72;;
65583;SDS011;62116;43.582;1.470;2023-03-01T13:11:41;6.13;;;4.03;;
65583;SDS011;62116;43.582;1.470;2023-03-01T13:16:51;6.50;;;4.47;;
65583;SDS011;62116;43.582;1.470;2023-03-01T13:19:18;5.80;;;4.18;;
65583;SDS011;62116;43.582;1.470;2023-03-01T13:21:47;5.57;;;3.75;;
65583;SDS011;62116;43.582;1.470;2023-03-01T13:29:44;6.43;;;3.70;;
65583;SDS011;62116;43.582;1.470;2023-03-01T13:34:46;6.82;;;4.00;;
65583;SDS011;62116;43.582;1.470;2023-03-01T13:37:21;5.38;;;3.85;;
65583;SDS011;62116;43.582;1.470;2023-03-01T13:39:48;6.82;;;3.80;;
65583;SDS011;62116;43.582;1.470;2023-03-01T13:42:34;5.18;;;3.60;;
65583;SDS011;62116;43.582;1.470;2023-03-01T13:45:05;5.90;;;3.40;;
65583;SDS011;62116;43.582;1.470;2023-03-01T13:47:48;6.60;;;4.00;;
65583;SDS011;62116;43.582;1.470;2023-03-01T13:50:19;8.25;;;4.30;;
65583;SDS011;62116;43.582;1.470;2023-03-01T13:52:48;6.07;;;4.07;;
65583;SDS011;62116;43.582;1.470;2023-03-01T13:57:47;5.10;;;3.97;;
65583;SDS011;62116;43.582;1.470;2023-03-01T14:00:25;6.85;;;3.97;;
65583;SDS011;62116;43.582;1.470;2023-03-01T14:05:57;5.03;;;3.80;;
65583;SDS011;62116;43.582;1.470;2023-03-01T14:08:36;5.47;;;3.92;;
65583;SDS011;62116;43.582;1.470;2023-03-01T14:19:28;4.90;;;3.72;;
65583;SDS011;62116;43.582;1.470;2023-03-01T14:22:28;6.88;;;4.15;;
65583;SDS011;62116;43.582;1.470;2023-03-01T14:24:52;5.70;;;4.20;;
65583;SDS011;62116;43.582;1.470;2023-03-01T14:27:21;7.65;;;4.45;;
65583;SDS011;62116;43.582;1.470;2023-03-01T14:29:54;6.22;;;4.53;;
65583;SDS011;62116;43.582;1.470;2023-03-01T14:32:27;5.72;;;4.20;;
65583;SDS011;62116;43.582;1.470;2023-03-01T14:34:54;6.95;;;4.55;;
65583;SDS011;62116;43.582;1.470;2023-03-01T14:37:25;7.07;;;4.35;;
65583;SDS011;62116;43.582;1.470;2023-03-01T14:39:55;5.80;;;4.18;;
65583;SDS011;62116;43.582;1.470;2023-03-01T14:42:22;7.03;;;4.35;;
65583;SDS011;62116;43.582;1.470;2023-03-01T14:44:51;8.50;;;4.93;;
65583;SDS011;62116;43.582;1.470;2023-03-01T14:50:04;7.45;;;4.70;;
65583;SDS011;62116;43.582;1.470;2023-03-01T14:52:35;5.68;;;4.25;;
65583;SDS011;62116;43.582;1.470;2023-03-01T14:55:04;7.10;;;4.50;;
65583;SDS011;62116;43.582;1.470;2023-03-01T14:57:32;7.13;;;4.70;;
65583;SDS011;62116;43.582;1.470;2023-03-01T14:59:58;6.22;;;4.53;;
65583;SDS011;62116;43.582;1.470;2023-03-01T15:02:26;8.73;;;4.60;;
65583;SDS011;62116;43.582;1.470;2023-03-01T15:04:57;6.82;;;4.10;;
65583;SDS011;62116;43.582;1.470;2023-03-01T15:07:26;4.70;;;3.90;;
65583;SDS011;62116;43.582;1.470;2023-03-01T15:09:55;7.32;;;4.40;;
65583;SDS011;62116;43.582;1.470;2023-03-01T15:14:52;5.63;;;4.20;;
65583;SDS011;62116;43.582;1.470;2023-03-01T15:19:57;6.57;;;4.22;;
65583;SDS011;62116;43.582;1.470;2023-03-01T15:22:24;7.07;;;4.10;;
65583;SDS011;62116;43.582;1.470;2023-03-01T15:24:51;7.03;;;4.50;;
65583;SDS011;62116;43.582;1.470;2023-03-01T15:27:21;6.78;;;3.92;;
65583;SDS011;62116;43.582;1.470;2023-03-01T15:29:53;6.63;;;4.13;;
65583;SDS011;62116;43.582;1.470;2023-03-01T15:34:58;6.50;;;4.25;;
65583;SDS011;62116;43.582;1.470;2023-03-01T15:37:36;6.03;;;4.20;;
65583;SDS011;62116;43.582;1.470;2023-03-01T15:43:02;7.28;;;4.30;;
65583;SDS011;62116;43.582;1.470;2023-03-01T15:45:29;7.85;;;4.30;;
65583;SDS011;62116;43.582;1.470;2023-03-01T15:48:05;7.80;;;3.97;;
65583;SDS011;62116;43.582;1.470;2023-03-01T15:50:42;8.63;;;4.43;;
65583;SDS011;62116;43.582;1.470;2023-03-01T15:53:12;6.40;;;4.38;;
65583;SDS011;62116;43.582;1.470;2023-03-01T15:55:41;5.75;;;3.63;;
65583;SDS011;62116;43.582;1.470;2023-03-01T15:58:14;6.57;;;4.25;;
65583;SDS011;62116;43.582;1.470;2023-03-01T16:00:41;6.85;;;4.00;;
65583;SDS011;62116;43.582;1.470;2023-03-01T16:03:08;6.40;;;3.95;;
65583;SDS011;62116;43.582;1.470;2023-03-01T16:05:36;6.07;;;4.03;;
65583;SDS011;62116;43.582;1.470;2023-03-01T16:08:02;7.85;;;4.40;;
65583;SDS011;62116;43.582;1.470;2023-03-01T16:10:30;6.32;;;4.20;;
65583;SDS011;62116;43.582;1.470;2023-03-01T16:12:56;5.72;;;3.92;;
65583;SDS011;62116;43.582;1.470;2023-03-01T16:17:49;5.57;;;4.05;;
65583;SDS011;62116;43.582;1.470;2023-03-01T16:20:15;7.47;;;4.35;;
65583;SDS011;62116;43.582;1.470;2023-03-01T16:22:41;6.45;;;4.05;;
65583;SDS011;62116;43.582;1.470;2023-03-01T16:25:09;6.93;;;4.32;;
65583;SDS011;62116;43.582;1.470;2023-03-01T16:27:35;6.03;;;4.07;;
65583;SDS011;62116;43.582;1.470;2023-03-01T16:30:00;5.82;;;4.10;;
65583;SDS011;62116;43.582;1.470;2023-03-01T16:32:26;6.72;;;4.40;;
65583;SDS011;62116;43.582;1.470;2023-03-01T16:34:51;5.35;;;3.90;;
65583;SDS011;62116;43.582;1.470;2023-03-01T16:37:16;7.45;;;4.22;;
65583;SDS011;62116;43.582;1.470;2023-03-01T16:39:44;6.22;;;4.30;;
65583;SDS011;62116;43.582;1.470;2023-03-01T16:42:09;7.50;;;4.40;;
65583;SDS011;62116;43.582;1.470;2023-03-01T16:44:34;7.53;;;4.30;;
65583;SDS011;62116;43.582;1.470;2023-03-01T16:47:00;6.88;;;4.22;;
65583;SDS011;62116;43.582;1.470;2023-03-01T16:49:25;6.05;;;4.20;;
65583;SDS011;62116;43.582;1.470;2023-03-01T16:51:52;7.07;;;4.45;;
65583;SDS011;62116;43.582;1.470;2023-03-01T16:54:18;7.68;;;4.22;;
65583;SDS011;62116;43.582;1.470;2023-03-01T16:56:44;6.65;;;4.28;;
65583;SDS011;62116;43.582;1.470;2023-03-01T16:59:09;7.57;;;4.60;;
65583;SDS011;62116;43.582;1.470;2023-03-01T17:01:34;6.93;;;4.65;;
65583;SDS011;62116;43.582;1.470;2023-03-01T17:04:04;8.65;;;5.00;;
65583;SDS011;62116;43.582;1.470;2023-03-01T17:06:30;6.88;;;4.38;;